Cobleskill, NY

12:31 EST 24. November 2014 (GMT -0500)
Cobleskill Richmondville | Change Station
CLOSE
Current Station
Isiklikud ilmajaamad
Location: Richmondville, NY
Kõrgus: 965 ft
Nearby Weather Stations
Aktiivne teade: Winter Storm Watch Aktiivne teadaanne: Public Information Statement

Elev 965 ft 42.65 °N, 74.53 °W | Updated 10 seconds ago

Lauspilvisus
Lauspilvisus
69.0 °F
Feels Like 69.0 °F
Põhja
0.0
Tuul Muutliku suunaga Tuul from Lääneedela
Gusts 0.0 mph

Täna
High -- | Low -- °F
--% Chance of Precip.
Eile
High -- | Low -- °F
Precip. -- tolli
7:00 AM 4:28 PM
Poolkuu (esimene veerand), 6% visible
Õhurõhk 29.55 tolli
Nähtavus 10.0 miili
Pilved Hajus pilvisus 800 ft
Hajus pilvisus 4500 ft
Lauspilvisus 7500 ft
Kastepunkt 59 °F
Õhuniiskus 71%
Sademed 0.22 tolli
Lume paksus Not available.
UV 1 , kõrgeim võimalik 12
Õietolm .10 , kõrgeim võimalik 12
Õhukvaliteet Not available.
Flu Activity Not available.
METAR KSCH 241552Z 16007KT 10SM SCT008 SCT045 OVC075 16/15 A2955

More Conditions Fewer Conditions

Õhurõhk 29.55 tolli
Nähtavus 10.0 miili
Pilved Hajus pilvisus 800 ft
Hajus pilvisus 4500 ft
Lauspilvisus 7500 ft
Kastepunkt 59 °F
Õhuniiskus 71%
Sademed 0.22 tolli
Lume paksus Not available.
UV 1 , kõrgeim võimalik 12
Õietolm .10 , kõrgeim võimalik 12
Õhukvaliteet Not available.
Flu Activity Not available.
METAR KSCH 241552Z 16007KT 10SM SCT008 SCT045 OVC075 16/15 A2955

More Conditions Fewer Conditions

10-Day Weather Forecast

Almanac

Astronoomia

Nov. 24, 2014 Tõus Loojang
Tegelik aeg
Tsiviilne hämarik
Nautiline hämarik
Astronoomiline hämarik
Kuu
Nähtava valguse kestus
Päeva pikkus
Tomorrow will be .
, % of the Moon is Illuminated

Tänased ekstreemumid

State Highs State Lows

Community

WunderPhotos

Upload Photos

1,773,378 photos uploaded!

WunderBlogs® & News

Nearby

Õhukvaliteet

  Õhukvaliteet ÕK indeks Reostaja
Not available.

Lume paksus

Station Depth Kõrgus

Maavärinate aktiivsus

Linn Distance Mag. Time & Date
Minimum magnitude displayed is 2.5.

Coastal Water Temperatures

Koht Temperatuur

Nearby Weather Stations